x

St. Augustine, Fl (sauf1) Weather Station

4:00am - Sat 1st Oct 2016 All times are EDT. -4 hours from GMT.

  • Wind
    8mph, 10mph gusts
  • Sea Temp 82°f
  • Air Temp 73°f
  • Sea Pressure 1016.1mb
  • St. Augustine, Fl
  • St. Augustine, Fl

More Historic Weather Station data

Upgrade to MSW Pro to gain access to the past 30 days of data for over 8000 Wavebouys and Weather Stations around the globe.

Join Pro

Comparision Forecast

View Surf forecast
   
Sat 10/01 4:00am 8 10 mph 1016.1mb 82f 73f
3:00am 7 9 mph 1016.2mb 83f 74f
2:00am 6 8 mph 1016.9mb 83f 75f
1:00am 6 8 mph 1017mb 83f 75f
12:00am 9 11 mph 1016.8mb 83f 76f
Fri 09/30 11:00pm 7 8 mph 1017.4mb 84f 78f
10:00pm 9 11 mph 1017.1mb 84f 81f
9:00pm 13
mph
1016.6mb 84f 82f
8:00pm 13 14 mph 1016.2mb 84f 82f
7:00pm 10 11 mph 1015.5mb 84f 82f
6:00pm 9 10 mph 1015.5mb 84f 82f
5:00pm 9 10 mph 1015.5mb 84f 81f
4:00pm 8 10 mph 1015.6mb 84f 81f
3:00pm 9 10 mph 1015.9mb 84f 81f
2:00pm 10 11 mph 1017mb 84f 81f
1:00pm 9 10 mph 1017.8mb 83f 80f
12:00pm 8 9 mph 1018mb 83f 79f
11:00am 3 5 mph 1018.3mb 82f 80f
10:00am 2 3 mph 1018.1mb 82f 78f
9:00am 5 7 mph 1017.4mb 82f 76f
8:00am 2 3 mph 1017.2mb 82f 73f
7:00am 3 5 mph 1016.7mb 82f 73f
6:00am 5 6 mph 1015.7mb 82f 73f
5:00am 5 7 mph 1015.4mb 82f 74f
4:00am 6 7 mph 1015.6mb 82f 74f
3:00am 7 9 mph 1016.1mb 82f 75f
2:00am 8 10 mph 1016.5mb 82f 75f
1:00am 7 9 mph 1016.7mb 83f 75f
12:00am 8 9 mph 1017.1mb 83f 76f
Thu 09/29 11:00pm 7 8 mph 1017.1mb 83f 77f
10:00pm 8 10 mph 1017mb 83f 78f
9:00pm 8 10 mph 1016.6mb 83f 78f
8:00pm 10 13 mph 1016.2mb 83f 78f
7:00pm 7 9 mph 1015.8mb 84f 80f
6:00pm 14 17 mph 1015.5mb 84f 80f
5:00pm 8 10 mph 1015.6mb 84f 82f
4:00pm 11 14 mph 1015.6mb 84f 83f
3:00pm 8 11 mph 1016mb 84f 82f
2:00pm 8 9 mph 1016.4mb 84f 85f
1:00pm 5 7 mph 1017mb 84f 86f
12:00pm 7 10 mph 1017.7mb 83f 84f
11:00am 10 14 mph 1017.4mb 83f 82f
10:00am 7 9 mph 1017.4mb 83f 80f
9:00am 9 13 mph 1017.1mb 83f 76f
8:00am 6 7 mph 1016.5mb 83f 74f
7:00am 7 10 mph 1016.6mb 83f 72f
6:00am 8 9 mph 1016.1mb 83f 72f
5:00am 6 8 mph 1015.9mb 83f 72f
4:00am 7 9 mph 1016mb 83f 72f
3:00am 8 10 mph 1016.3mb 83f 73f
2:00am 6 9 mph 1016.4mb 83f 73f
1:00am 6 8 mph 1016.7mb 83f 73f
12:00am 8 10 mph 1017mb 84f 73f
Wed 09/28 11:00pm 6 8 mph 1016.7mb 84f 73f
10:00pm 9 10 mph 1017mb 84f 74f
9:00pm 9 11 mph 1016.9mb 84f 74f
8:00pm 7 9 mph 1016.2mb 84f 76f
7:00pm 5 7 mph 1015.7mb 84f 77f
6:00pm  -  1 mph 1015.9mb 84f 77f
5:00pm 5 6 mph 1015.2mb 84f 79f
4:00pm 25 31 mph 1016mb 85f 71f
3:00pm 11 13 mph 1015.1mb 85f 82f
2:00pm 5 6 mph 1015.5mb 85f 86f
1:00pm 6 7 mph 1016.3mb 85f 86f
12:00pm 7 8 mph 1016.6mb 84f 84f
11:00am 7 9 mph 1016.9mb 84f 85f
10:00am 5 6 mph 1016.4mb 83f 83f
9:00am 3 5 mph 1016.2mb 83f 79f
8:00am 5 6 mph 1015.5mb 83f 76f
7:00am 6 7 mph 1015.2mb 83f 74f
6:00am 6 7 mph 1015mb 83f 74f
5:00am 8 10 mph 1014.7mb 84f 74f
4:00am 8 9 mph 1014.4mb 84f 74f
3:00am 3 5 mph 1014.5mb 84f 74f
2:00am 7 8 mph 1014.7mb 84f 75f
1:00am 6 7 mph 1015mb 84f 76f
12:00am 6 7 mph 1015mb 84f 76f
Tue 09/27 11:00pm 7 8 mph 1015mb 85f 78f
10:00pm 10 11 mph 1014.8mb 85f 81f
9:00pm 6 7 mph 1014mb 85f 81f
8:00pm 8 9 mph 1013.1mb 85f 81f
7:00pm 8 9 mph 1012.9mb 85f 81f
6:00pm 9 10 mph 1013.1mb 85f 81f
5:00pm 11 13 mph 1012.9mb 85f 80f
4:00pm 11 13 mph 1012.9mb 85f 80f
3:00pm 10 11 mph 1013.1mb 85f 80f
2:00pm 10 11 mph 1013.8mb 85f 80f
1:00pm 10 11 mph 1014.8mb 85f 79f
12:00pm 8 11 mph 1015mb 84f 80f
11:00am 8 10 mph 1015.1mb 83f 80f
10:00am 9 11 mph 1014.9mb 83f 78f